createdAt,value
2019-03-24T00:01:14.514Z,99891.34
2019-03-24T00:03:42.907Z,99891.27
2019-03-24T00:06:11.387Z,99880.68
2019-03-24T00:08:39.786Z,99886.97
2019-03-24T00:11:08.176Z,99885.17
2019-03-24T00:13:36.571Z,99879.92
2019-03-24T00:16:04.982Z,99874.66
2019-03-24T00:18:33.443Z,99879.13
2019-03-24T00:21:01.835Z,99873.79
2019-03-24T00:23:30.512Z,99875.61
2019-03-24T00:25:58.909Z,99873.98
2019-03-24T00:28:27.302Z,99869.56
2019-03-24T00:30:55.710Z,99873.19
2019-03-24T00:33:24.102Z,99866.14
2019-03-24T00:35:52.544Z,99866.14
2019-03-24T00:38:20.953Z,99859.09
2019-03-24T00:40:49.346Z,99860.02
2019-03-24T00:43:17.737Z,99860.88
2019-03-24T00:45:46.139Z,99863.59
2019-03-24T00:48:14.540Z,99849.51
2019-03-24T00:50:42.973Z,99859.22
2019-03-24T00:53:11.370Z,99856.63
2019-03-24T00:55:39.791Z,99853.09
2019-03-24T00:58:08.186Z,99849.66
2019-03-24T01:00:43.813Z,99849.58
2019-03-24T01:03:12.212Z,99844.33
2019-03-24T01:05:40.819Z,99840.87
2019-03-24T01:08:09.435Z,99838.20
2019-03-24T01:10:37.816Z,99837.45
2019-03-24T01:13:06.745Z,99841.06
2019-03-24T01:15:35.190Z,99835.89
2019-03-24T01:18:03.648Z,99834.09
2019-03-24T01:20:32.166Z,99826.10
2019-03-24T01:23:00.567Z,99830.55
2019-03-24T01:25:28.964Z,99830.63
2019-03-24T01:27:57.391Z,99825.38
2019-03-24T01:30:25.786Z,99828.05
2019-03-24T01:32:54.188Z,99827.20
2019-03-24T01:35:22.578Z,99829.00
2019-03-24T01:37:50.976Z,99827.28
2019-03-24T01:40:19.376Z,99836.20
2019-03-24T01:42:47.781Z,99831.74
2019-03-24T01:45:16.176Z,99833.53
2019-03-24T01:47:44.610Z,99838.02
2019-03-24T01:50:13.009Z,99838.09
2019-03-24T01:52:41.412Z,99841.71
2019-03-24T01:55:09.802Z,99845.22
2019-03-24T01:57:38.195Z,99841.71
2019-03-24T02:00:08.300Z,99842.73
2019-03-24T02:02:36.732Z,99842.73
2019-03-24T02:05:06.572Z,99840.91
2019-03-24T02:07:34.975Z,99849.78
2019-03-24T02:10:04.510Z,99852.52
2019-03-24T02:12:32.946Z,99849.86
2019-03-24T02:15:01.350Z,99840.98
2019-03-24T02:17:29.787Z,99836.61
2019-03-24T02:19:58.187Z,99853.55
2019-03-24T02:22:26.626Z,99849.06
2019-03-24T02:24:55.020Z,99853.63
2019-03-24T02:27:23.443Z,99853.63
2019-03-24T02:29:51.833Z,99853.63
2019-03-24T02:32:20.253Z,99854.57
2019-03-24T02:34:48.657Z,99861.61
2019-03-24T02:37:17.120Z,99859.03
2019-03-24T02:39:45.521Z,99856.44
2019-03-24T02:42:13.954Z,99867.97
2019-03-24T02:44:42.347Z,99871.47
2019-03-24T02:47:10.788Z,99877.75
2019-03-24T02:49:39.181Z,99871.58
2019-03-24T02:52:07.683Z,99877.75
2019-03-24T02:54:36.081Z,99880.42
2019-03-24T02:57:04.548Z,99875.16
2019-03-24T02:59:32.954Z,99877.83
2019-03-24T03:02:01.395Z,99885.82
2019-03-24T03:04:29.775Z,99885.82
2019-03-24T03:06:58.178Z,99887.64
2019-03-24T03:09:26.580Z,99886.69
2019-03-24T03:11:54.984Z,99885.82
2019-03-24T03:14:23.391Z,99888.55
2019-03-24T03:16:51.792Z,99893.89
2019-03-24T03:19:20.192Z,99890.30
2019-03-24T03:21:48.590Z,99894.76
2019-03-24T03:24:16.990Z,99901.87
2019-03-24T03:26:45.385Z,99905.48
2019-03-24T03:29:13.781Z,99904.54
2019-03-24T03:31:42.257Z,99909.87
2019-03-24T03:34:10.648Z,99907.31
2019-03-24T03:36:39.084Z,99918.81
2019-03-24T03:39:07.513Z,99924.13
2019-03-24T03:41:35.988Z,99926.80
2019-03-24T03:44:04.431Z,99927.75
2019-03-24T03:46:32.864Z,99934.86
2019-03-24T03:49:01.264Z,99942.86
2019-03-24T03:51:29.670Z,99935.66
2019-03-24T03:53:59.233Z,99934.79
2019-03-24T03:56:27.850Z,99940.12
2019-03-24T03:58:56.240Z,99942.70
2019-03-24T04:01:24.765Z,99949.05
2019-03-24T04:03:53.166Z,99949.93
2019-03-24T04:06:21.565Z,99949.05
2019-03-24T04:08:49.969Z,99954.39
2019-03-24T04:11:18.454Z,99954.39
2019-03-24T04:13:46.833Z,99954.39
2019-03-24T04:16:15.294Z,99959.71
2019-03-24T04:18:43.704Z,99961.43
2019-03-24T04:21:12.098Z,99959.71
2019-03-24T04:23:40.570Z,99961.43
2019-03-24T04:26:08.963Z,99970.37
2019-03-24T04:28:37.401Z,99971.24
2019-03-24T04:31:05.791Z,99977.34
2019-03-24T04:33:34.193Z,99977.41
2019-03-24T04:36:02.666Z,99987.13
2019-03-24T04:38:31.068Z,99994.27
2019-03-24T04:40:59.474Z,100000.44
2019-03-24T04:43:27.881Z,100010.18
2019-03-24T04:45:56.288Z,100011.09
2019-03-24T04:48:26.256Z,100009.23
2019-03-24T04:50:54.662Z,100011.02
2019-03-24T04:53:23.064Z,100009.23
2019-03-24T04:55:51.461Z,100003.03
2019-03-24T04:58:19.896Z,100009.23
2019-03-24T05:00:48.312Z,100003.91
2019-03-24T05:03:16.744Z,99999.34
2019-03-24T05:05:45.144Z,99998.58
2019-03-24T05:08:13.581Z,100007.34
2019-03-24T05:10:41.974Z,100008.28
2019-03-24T05:13:10.417Z,100017.16
2019-03-24T05:15:38.820Z,100025.08
2019-03-24T05:18:07.240Z,100023.33
2019-03-24T05:20:35.636Z,100027.67
2019-03-24T05:23:04.071Z,100027.73
2019-03-24T05:25:32.467Z,100025.00
2019-03-24T05:28:00.920Z,100028.52
2019-03-24T05:30:29.319Z,100021.47
2019-03-24T05:32:57.746Z,100022.41
2019-03-24T05:35:26.147Z,100028.52
2019-03-24T05:37:54.700Z,100039.17
2019-03-24T05:40:23.103Z,100038.22
2019-03-24T05:42:51.543Z,100046.22
2019-03-24T05:45:19.944Z,100047.09
2019-03-24T05:47:48.384Z,100039.09
2019-03-24T05:50:16.891Z,100042.63
2019-03-24T05:52:45.339Z,100047.09
2019-03-24T05:55:13.744Z,100042.63
2019-03-24T05:57:42.232Z,100035.48
2019-03-24T06:00:10.706Z,100037.30
2019-03-24T06:02:39.178Z,100042.46
2019-03-24T06:05:07.618Z,100038.08
2019-03-24T06:07:36.051Z,100029.24
2019-03-24T06:10:07.164Z,100042.46
2019-03-24T06:12:35.669Z,100034.47
2019-03-24T06:15:05.230Z,100033.55
2019-03-24T06:17:33.658Z,100033.55
2019-03-24T06:20:02.058Z,100029.94
2019-03-24T06:22:30.457Z,100030.89
2019-03-24T06:24:58.862Z,100038.81
2019-03-24T06:27:28.932Z,100030.81
2019-03-24T06:29:58.972Z,100036.98
2019-03-24T06:32:27.375Z,100046.80
2019-03-24T06:34:57.309Z,100042.31
2019-03-24T06:37:25.745Z,100041.37
2019-03-24T06:39:54.178Z,100043.96
2019-03-24T06:42:22.634Z,100045.78
2019-03-24T06:44:51.099Z,100043.89
2019-03-24T06:47:19.507Z,100045.71
2019-03-24T06:49:47.903Z,100050.09
2019-03-24T06:52:16.561Z,100063.42
2019-03-24T06:54:44.955Z,100048.27
2019-03-24T06:57:13.364Z,100052.69
2019-03-24T06:59:41.768Z,100047.36
2019-03-24T07:02:10.166Z,100058.86
2019-03-24T07:04:38.590Z,100054.41
2019-03-24T07:07:06.991Z,100055.28
2019-03-24T07:09:35.475Z,100055.28
2019-03-24T07:12:03.878Z,100066.78
2019-03-24T07:14:32.281Z,100067.66
2019-03-24T07:17:01.778Z,100064.05
2019-03-24T07:19:30.176Z,100079.09
2019-03-24T07:21:58.582Z,100077.37
2019-03-24T07:24:26.994Z,100075.58
2019-03-24T07:26:55.390Z,100071.97
2019-03-24T07:29:23.792Z,100073.69
2019-03-24T07:31:52.193Z,100074.56
2019-03-24T07:34:20.669Z,100071.82
2019-03-24T07:36:49.071Z,100076.20
2019-03-24T07:39:17.495Z,100073.54
2019-03-24T07:41:45.902Z,100081.53
2019-03-24T07:44:14.391Z,100067.27
2019-03-24T07:46:42.788Z,100063.65
2019-03-24T07:49:11.240Z,100067.19
2019-03-24T07:51:39.711Z,100064.45
2019-03-24T07:54:08.229Z,100059.08
2019-03-24T07:56:36.691Z,100052.80
2019-03-24T07:59:05.134Z,100052.73
2019-03-24T08:01:33.537Z,100053.50
2019-03-24T08:04:01.975Z,100056.96
2019-03-24T08:06:30.372Z,100048.97
2019-03-24T08:08:58.812Z,100049.73
2019-03-24T08:11:27.231Z,100047.87
2019-03-24T08:13:55.662Z,100042.54
2019-03-24T08:16:24.034Z,100042.39
2019-03-24T08:18:52.452Z,100043.16
2019-03-24T08:21:20.839Z,100036.87
2019-03-24T08:23:49.283Z,100040.34
2019-03-24T08:26:17.676Z,100034.86
2019-03-24T08:28:46.102Z,100033.83
2019-03-24T08:31:14.504Z,100031.09
2019-03-24T08:33:42.920Z,100038.94
2019-03-24T08:36:11.308Z,100040.66
2019-03-24T08:38:39.739Z,100033.42
2019-03-24T08:41:08.139Z,100029.73
2019-03-24T08:43:36.596Z,100028.73
2019-03-24T08:46:05.000Z,100033.88
2019-03-24T08:48:40.819Z,100027.52
2019-03-24T08:51:03.556Z,100021.19
2019-03-24T08:53:31.960Z,100024.63
2019-03-24T08:56:00.391Z,100021.00
2019-03-24T08:58:28.754Z,100024.47
2019-03-24T09:00:57.215Z,100015.52
2019-03-24T09:03:25.612Z,100023.44
2019-03-24T09:05:54.005Z,100015.36
2019-03-24T09:08:22.394Z,100011.73
2019-03-24T09:10:50.829Z,100002.78
2019-03-24T09:13:19.228Z,100001.86
2019-03-24T09:15:47.650Z,99997.29
2019-03-24T09:18:16.054Z,99999.00
2019-03-24T09:20:44.485Z,100010.55
2019-03-24T09:23:12.871Z,100005.14
2019-03-24T09:25:41.386Z,100006.93
2019-03-24T09:28:09.882Z,99997.89
2019-03-24T09:30:38.348Z,99989.89
2019-03-24T09:33:06.754Z,99986.30
2019-03-24T09:35:35.205Z,99996.78
2019-03-24T09:38:05.236Z,99986.03
2019-03-24T09:40:34.871Z,99990.41
2019-03-24T09:43:03.320Z,99992.08
2019-03-24T09:45:31.970Z,99983.88
2019-03-24T09:48:00.544Z,99983.59
2019-03-24T09:50:28.936Z,99980.48
2019-03-24T09:52:57.498Z,99975.78
2019-03-24T09:55:25.896Z,99964.66
2019-03-24T09:57:54.283Z,99969.47
2019-03-24T10:00:22.676Z,99968.10
2019-03-24T10:02:51.070Z,99969.36
2019-03-24T10:05:19.456Z,99970.91
2019-03-24T10:07:47.846Z,99965.81
2019-03-24T10:10:16.233Z,99961.67
2019-03-24T10:12:44.620Z,99965.53
2019-03-24T10:15:13.019Z,99966.55
2019-03-24T10:17:41.400Z,99953.38
2019-03-24T10:20:09.791Z,99957.41
2019-03-24T10:22:38.261Z,99955.91
2019-03-24T10:25:07.426Z,99941.97
2019-03-24T10:27:35.820Z,99943.32
2019-03-24T10:30:08.138Z,99944.95
2019-03-24T10:32:36.615Z,99930.80
2019-03-24T10:35:06.735Z,99932.59
2019-03-24T10:37:35.121Z,99929.67
2019-03-24T10:40:04.198Z,99936.89
2019-03-24T10:42:32.650Z,99933.30
2019-03-24T10:45:02.763Z,99928.62
2019-03-24T10:47:31.148Z,99914.40
2019-03-24T10:49:59.578Z,99921.26
2019-03-24T10:52:27.972Z,99919.20
2019-03-24T10:54:56.402Z,99915.42
2019-03-24T10:57:25.301Z,99911.55
2019-03-24T10:59:53.735Z,99908.42
2019-03-24T11:02:22.190Z,99903.03
2019-03-24T11:04:50.664Z,99914.98
2019-03-24T11:07:19.050Z,99903.77
2019-03-24T11:09:47.491Z,99908.68
2019-03-24T11:12:15.882Z,99900.63
2019-03-24T11:14:44.388Z,99902.64
2019-03-24T11:17:12.783Z,99907.41
2019-03-24T11:19:41.178Z,99900.58
2019-03-24T11:22:09.574Z,99897.98
2019-03-24T11:24:37.992Z,99900.91
2019-03-24T11:27:06.395Z,99894.52
2019-03-24T11:29:34.781Z,99891.77
2019-03-24T11:32:03.176Z,99889.54
2019-03-24T11:34:31.573Z,99880.48
2019-03-24T11:36:59.975Z,99888.34
2019-03-24T11:39:28.364Z,99880.55
2019-03-24T11:41:56.757Z,99884.56
2019-03-24T11:44:25.156Z,99872.11
2019-03-24T11:46:53.550Z,99875.09
2019-03-24T11:49:21.935Z,99876.99
2019-03-24T11:51:50.343Z,99873.96
2019-03-24T11:54:18.729Z,99865.16
2019-03-24T11:56:47.150Z,99861.77
2019-03-24T11:59:15.536Z,99857.38
2019-03-24T12:01:43.968Z,99860.05
2019-03-24T12:04:12.356Z,99863.77
2019-03-24T12:06:40.850Z,99857.92
2019-03-24T12:09:09.257Z,99853.39
2019-03-24T12:11:37.687Z,99841.60
2019-03-24T12:14:06.141Z,99840.64
2019-03-24T12:16:34.571Z,99833.67
2019-03-24T12:19:02.974Z,99834.62
2019-03-24T12:21:31.403Z,99829.66
2019-03-24T12:23:59.791Z,99822.31
2019-03-24T12:26:28.226Z,99824.23
2019-03-24T12:28:56.719Z,99819.89
2019-03-24T12:31:25.137Z,99816.48
2019-03-24T12:33:53.605Z,99807.88
2019-03-24T12:36:21.992Z,99803.45
2019-03-24T12:38:50.384Z,99799.95
2019-03-24T12:41:18.772Z,99790.17
2019-03-24T12:43:47.165Z,99785.75
2019-03-24T12:46:15.555Z,99791.45
2019-03-24T12:48:43.947Z,99779.78
2019-03-24T12:51:12.344Z,99779.06
2019-03-24T12:53:40.732Z,99773.02
2019-03-24T12:56:09.114Z,99761.73
2019-03-24T12:58:37.535Z,99760.19
2019-03-24T13:01:05.926Z,99754.73
2019-03-24T13:03:35.911Z,99739.75
2019-03-24T13:06:04.894Z,99730.30
2019-03-24T13:08:33.287Z,99735.13
2019-03-24T13:11:01.733Z,99724.14
2019-03-24T13:13:30.117Z,99728.58
2019-03-24T13:15:58.525Z,99723.90
2019-03-24T13:18:26.943Z,99718.84
2019-03-24T13:20:55.364Z,99711.61
2019-03-24T13:23:23.744Z,99708.62
2019-03-24T13:25:52.175Z,99706.94
2019-03-24T13:28:21.090Z,99693.70
2019-03-24T13:30:49.486Z,99696.66
2019-03-24T13:33:17.877Z,99691.33
2019-03-24T13:35:47.445Z,99684.16
2019-03-24T13:38:15.838Z,99683.92
2019-03-24T13:40:44.224Z,99675.91
2019-03-24T13:43:12.700Z,99683.09
2019-03-24T13:45:41.097Z,99678.02
2019-03-24T13:48:09.552Z,99668.80
2019-03-24T13:50:38.069Z,99666.27
2019-03-24T13:53:06.462Z,99669.69
2019-03-24T13:55:34.843Z,99663.42
2019-03-24T13:58:04.424Z,99657.08
2019-03-24T14:00:32.822Z,99654.97
2019-03-24T14:03:01.455Z,99641.45
2019-03-24T14:05:29.839Z,99643.59
2019-03-24T14:07:58.228Z,99636.85
2019-03-24T14:10:26.625Z,99632.70
2019-03-24T14:12:55.019Z,99625.53
2019-03-24T14:15:23.413Z,99627.86
2019-03-24T14:17:51.813Z,99619.84
2019-03-24T14:20:20.202Z,99611.20
2019-03-24T14:22:48.594Z,99606.63
2019-03-24T14:25:16.986Z,99604.11
2019-03-24T14:27:45.410Z,99601.30
2019-03-24T14:30:13.798Z,99594.66
2019-03-24T14:32:42.213Z,99585.34
2019-03-24T14:35:10.607Z,99585.30
2019-03-24T14:37:39.091Z,99578.17
2019-03-24T14:40:08.010Z,99573.94
2019-03-24T14:42:36.432Z,99563.08
2019-03-24T14:45:06.956Z,99565.19
2019-03-24T14:47:35.393Z,99558.23
2019-03-24T14:50:06.351Z,99541.05
2019-03-24T14:52:34.776Z,99557.02
2019-03-24T14:55:03.175Z,99546.48
2019-03-24T14:57:31.609Z,99539.69
2019-03-24T14:59:59.996Z,99542.84
2019-03-24T15:02:28.410Z,99532.14
2019-03-24T15:04:56.816Z,99533.06
2019-03-24T15:07:25.246Z,99527.66
2019-03-24T15:09:53.632Z,99516.75
2019-03-24T15:12:22.109Z,99519.96
2019-03-24T15:14:50.491Z,99510.05
2019-03-24T15:17:18.972Z,99510.40
2019-03-24T15:19:47.367Z,99511.21
2019-03-24T15:22:15.772Z,99508.45
2019-03-24T15:24:44.185Z,99508.87
2019-03-24T15:27:12.658Z,99508.61
2019-03-24T15:29:41.056Z,99504.47
2019-03-24T15:32:09.482Z,99503.15
2019-03-24T15:34:37.914Z,99497.13
2019-03-24T15:37:06.323Z,99498.44
2019-03-24T15:39:34.887Z,99490.59
2019-03-24T15:42:03.317Z,99493.51
2019-03-24T15:44:31.725Z,99492.72
2019-03-24T15:47:00.119Z,99493.65
2019-03-24T15:49:28.510Z,99481.28
2019-03-24T15:51:56.898Z,99485.72
2019-03-24T15:54:25.383Z,99491.02
2019-03-24T15:56:53.778Z,99495.47
2019-03-24T15:59:22.163Z,99498.18
2019-03-24T16:01:50.681Z,99489.02
2019-03-24T16:04:19.073Z,99484.41
2019-03-24T16:06:47.466Z,99479.69
2019-03-24T16:09:15.860Z,99474.25
2019-03-24T16:11:44.249Z,99480.27
2019-03-24T16:14:15.222Z,99478.14
2019-03-24T16:16:43.610Z,99477.06
2019-03-24T16:19:12.014Z,99474.95
2019-03-24T16:21:40.396Z,99466.59
2019-03-24T16:24:08.791Z,99466.98
2019-03-24T16:26:37.180Z,99461.20
2019-03-24T16:29:05.576Z,99460.78
2019-03-24T16:31:33.962Z,99453.30
2019-03-24T16:34:02.353Z,99452.86
2019-03-24T16:36:30.860Z,99447.92
2019-03-24T16:39:03.569Z,99447.39
2019-03-24T16:41:29.385Z,99454.11
2019-03-24T16:43:57.779Z,99449.19
2019-03-24T16:46:26.179Z,99445.95
2019-03-24T16:48:54.566Z,99442.73
2019-03-24T16:51:22.954Z,99434.19
2019-03-24T16:53:51.432Z,99430.08
2019-03-24T16:56:19.791Z,99427.70
2019-03-24T16:58:48.456Z,99424.58
2019-03-24T17:01:16.885Z,99422.97
2019-03-24T17:03:45.275Z,99423.17
2019-03-24T17:06:13.705Z,99419.19
2019-03-24T17:08:42.064Z,99422.82
2019-03-24T17:11:10.461Z,99418.60
2019-03-24T17:13:38.921Z,99420.92
2019-03-24T17:16:07.309Z,99408.63
2019-03-24T17:18:35.772Z,99414.17
2019-03-24T17:21:04.169Z,99411.79
2019-03-24T17:23:32.635Z,99408.58
2019-03-24T17:26:01.023Z,99410.47
2019-03-24T17:28:29.446Z,99402.78
2019-03-24T17:30:57.832Z,99399.44
2019-03-24T17:33:26.263Z,99407.06
2019-03-24T17:35:54.739Z,99404.94
2019-03-24T17:38:23.219Z,99409.98
2019-03-24T17:40:51.614Z,99397.89
2019-03-24T17:43:20.057Z,99405.13
2019-03-24T17:45:48.458Z,99405.55
2019-03-24T17:48:16.940Z,99410.38
2019-03-24T17:50:45.344Z,99402.95
2019-03-24T17:53:13.802Z,99415.00
2019-03-24T17:55:42.201Z,99410.24
2019-03-24T17:58:10.639Z,99405.44
2019-03-24T18:00:41.569Z,99396.27
2019-03-24T18:03:10.002Z,99404.82
2019-03-24T18:05:38.467Z,99404.63
2019-03-24T18:08:06.937Z,99397.34
2019-03-24T18:10:35.338Z,99382.95
2019-03-24T18:13:03.909Z,99389.03
2019-03-24T18:15:32.316Z,99395.24
2019-03-24T18:18:00.803Z,99396.95
2019-03-24T18:20:34.656Z,99396.95
2019-03-24T18:23:03.048Z,99392.57
2019-03-24T18:25:32.335Z,99389.80
2019-03-24T18:28:00.791Z,99396.08
2019-03-24T18:30:29.192Z,99397.91
2019-03-24T18:32:57.605Z,99403.26
2019-03-24T18:35:26.035Z,99406.03
2019-03-24T18:37:54.447Z,99408.70
2019-03-24T18:40:22.924Z,99390.97
2019-03-24T18:42:51.320Z,99388.39
2019-03-24T18:45:20.518Z,99386.66
2019-03-24T18:47:48.918Z,99384.95
2019-03-24T18:50:17.314Z,99383.98
2019-03-24T18:52:45.718Z,99385.83
2019-03-24T18:55:14.355Z,99381.45
2019-03-24T18:57:42.777Z,99373.53
2019-03-24T19:00:12.683Z,99374.47
2019-03-24T19:02:41.149Z,99370.09
2019-03-24T19:05:09.552Z,99366.69
2019-03-24T19:07:37.961Z,99368.48
2019-03-24T19:10:13.324Z,99363.25
2019-03-24T19:12:41.719Z,99362.52
2019-03-24T19:15:12.725Z,99366.98
2019-03-24T19:17:41.127Z,99367.09
2019-03-24T19:20:09.518Z,99375.20
2019-03-24T19:22:37.922Z,99372.52
2019-03-24T19:25:09.337Z,99362.81
2019-03-24T19:27:37.731Z,99354.89
2019-03-24T19:30:11.233Z,99355.86
2019-03-24T19:32:39.640Z,99346.14
2019-03-24T19:35:08.043Z,99348.91
2019-03-24T19:37:37.963Z,99337.37
2019-03-24T19:40:08.913Z,99326.78
2019-03-24T19:42:37.305Z,99331.29
2019-03-24T19:45:05.843Z,99324.22
2019-03-24T19:47:34.297Z,99314.60
2019-03-24T19:50:02.924Z,99313.66
2019-03-24T19:52:31.330Z,99303.92
2019-03-24T19:54:59.739Z,99297.84
2019-03-24T19:57:28.133Z,99297.84
2019-03-24T19:59:56.568Z,99293.47
2019-03-24T20:02:24.971Z,99285.56
2019-03-24T20:04:53.404Z,99292.70
2019-03-24T20:07:21.827Z,99293.67
2019-03-24T20:09:50.259Z,99299.84
2019-03-24T20:12:18.667Z,99300.71
2019-03-24T20:14:47.101Z,99303.38
2019-03-24T20:17:15.498Z,99317.59
2019-03-24T20:19:43.916Z,99315.67
2019-03-24T20:22:12.314Z,99318.34
2019-03-24T20:24:40.829Z,99301.34
2019-03-24T20:27:09.219Z,99294.11
2019-03-24T20:29:37.619Z,99285.13
2019-03-24T20:32:06.069Z,99276.28
2019-03-24T20:34:34.473Z,99277.12
2019-03-24T20:37:02.916Z,99275.41
2019-03-24T20:39:31.384Z,99265.70
2019-03-24T20:41:59.791Z,99254.05
2019-03-24T20:44:28.196Z,99256.72
2019-03-24T20:46:56.592Z,99248.72
2019-03-24T20:49:24.993Z,99247.95
2019-03-24T20:51:53.397Z,99246.05
2019-03-24T20:54:21.867Z,99244.34
2019-03-24T20:56:50.269Z,99243.47
2019-03-24T20:59:18.658Z,99247.02
2019-03-24T21:01:47.055Z,99239.94
2019-03-24T21:04:15.748Z,99238.14
2019-03-24T21:06:44.162Z,99241.77
2019-03-24T21:09:12.554Z,99230.23
2019-03-24T21:11:41.049Z,99223.19
2019-03-24T21:14:09.437Z,99228.52
2019-03-24T21:16:37.918Z,99215.17
2019-03-24T21:19:06.310Z,99209.94
2019-03-24T21:21:36.245Z,99200.13
2019-03-24T21:24:04.852Z,99201.83
2019-03-24T21:26:33.264Z,99196.69
2019-03-24T21:29:01.662Z,99196.59
2019-03-24T21:31:30.107Z,99187.71
2019-03-24T21:33:58.504Z,99187.71
2019-03-24T21:36:26.984Z,99187.71
2019-03-24T21:38:55.387Z,99185.91
2019-03-24T21:41:23.930Z,99180.67
2019-03-24T21:43:52.429Z,99182.38
2019-03-24T21:46:20.909Z,99177.03
2019-03-24T21:48:49.375Z,99182.38
2019-03-24T21:51:17.770Z,99182.38
2019-03-24T21:53:46.162Z,99191.34
2019-03-24T21:56:14.979Z,99190.52
2019-03-24T21:58:43.369Z,99194.98
2019-03-24T22:01:11.760Z,99192.31
2019-03-24T22:03:40.151Z,99189.65
2019-03-24T22:06:08.552Z,99186.98
2019-03-24T22:08:37.031Z,99184.30
2019-03-24T22:11:05.425Z,99184.30
2019-03-24T22:13:33.850Z,99193.28
2019-03-24T22:16:02.231Z,99203.97
2019-03-24T22:18:30.629Z,99214.64
2019-03-24T22:20:59.023Z,99207.57
2019-03-24T22:23:27.420Z,99213.88
2019-03-24T22:25:55.825Z,99207.70
2019-03-24T22:28:24.217Z,99209.51
2019-03-24T22:30:52.639Z,99209.51
2019-03-24T22:33:21.043Z,99212.17
2019-03-24T22:35:49.465Z,99215.81
2019-03-24T22:38:17.873Z,99222.95
2019-03-24T22:40:46.289Z,99224.02
2019-03-24T22:43:14.682Z,99222.33
2019-03-24T22:45:43.116Z,99225.92
2019-03-24T22:48:11.590Z,99227.66
2019-03-24T22:50:40.268Z,99231.27
2019-03-24T22:53:08.668Z,99215.25
2019-03-24T22:55:37.119Z,99216.98
2019-03-24T22:58:05.484Z,99213.55
2019-03-24T23:00:53.078Z,99210.98
2019-03-24T23:03:21.713Z,99220.72
2019-03-24T23:05:50.114Z,99211.84
2019-03-24T23:08:18.521Z,99203.08
2019-03-24T23:10:46.935Z,99200.41
2019-03-24T23:13:15.337Z,99196.03
2019-03-24T23:15:43.736Z,99205.88
2019-03-24T23:18:12.128Z,99211.21
2019-03-24T23:20:40.534Z,99209.48
2019-03-24T23:23:08.932Z,99191.77
2019-03-24T23:25:37.332Z,99184.72
2019-03-24T23:28:05.910Z,99182.16
2019-03-24T23:30:34.301Z,99168.81
2019-03-24T23:33:02.709Z,99168.81
2019-03-24T23:35:31.115Z,99165.27
2019-03-24T23:37:59.514Z,99159.10
2019-03-24T23:40:27.913Z,99159.10
2019-03-24T23:42:56.329Z,99161.01
2019-03-24T23:45:24.717Z,99156.64
2019-03-24T23:47:53.189Z,99169.11
2019-03-24T23:50:21.587Z,99159.31
2019-03-24T23:52:50.018Z,99142.42
2019-03-24T23:55:18.412Z,99144.27
2019-03-24T23:57:46.872Z,99139.86
